Time;durP1;ratioP1;P1;durP2;ratioP2;P2;SDS_P1;SDS_P2;PMS_P1;PMS_P2;Temp;Humidity;BMP_temperature;BMP_pressure;BME280_temperature;BME280_humidity;BME280_pressure;Samples;Min_cycle;Max_cycle;Signal;HPM_P1;HPM_P2
2023/03/11 00:01:55;;;;;;;9.80;3.10;;;;;;;;;;5073887;28;20181;-69
2023/03/11 00:04:20;;;;;;;4.10;2.60;;;;;;;;;;5074184;28;20178;-70
2023/03/11 00:06:46;;;;;;;6.70;3.27;;;;;;;;;;5073805;28;20232;-72
2023/03/11 00:09:12;;;;;;;3.57;2.70;;;;;;;;;;5073961;28;20209;-70
2023/03/11 00:11:38;;;;;;;11.57;3.20;;;;;;;;;;5073965;28;20202;-70
2023/03/11 00:14:04;;;;;;;5.03;2.77;;;;;;;;;;5073884;28;20180;-71
2023/03/11 00:16:30;;;;;;;5.23;2.93;;;;;;;;;;5073844;28;20459;-70
2023/03/11 00:18:57;;;;;;;5.83;2.97;;;;;;;;;;5073885;28;20200;-70
2023/03/11 00:21:23;;;;;;;8.03;3.10;;;;;;;;;;5073740;28;20170;-71
2023/03/11 00:23:49;;;;;;;8.47;2.73;;;;;;;;;;5073673;28;20407;-69
2023/03/11 00:26:15;;;;;;;7.83;3.03;;;;;;;;;;5055721;28;20202;-71
2023/03/11 00:28:41;;;;;;;6.90;3.00;;;;;;;;;;5073654;28;20412;-70
2023/03/11 00:31:07;;;;;;;9.40;3.17;;;;;;;;;;5073830;28;20526;-71
2023/03/11 00:33:33;;;;;;;8.40;3.03;;;;;;;;;;5073664;28;20415;-71
2023/03/11 00:35:59;;;;;;;10.37;3.60;;;;;;;;;;5073561;28;20288;-71
2023/03/11 00:38:24;;;;;;;10.43;3.10;;;;;;;;;;5073417;28;20177;-69
2023/03/11 00:40:50;;;;;;;5.67;3.30;;;;;;;;;;5083088;22;20225;-66
2023/03/11 00:43:17;;;;;;;6.57;3.20;;;;;;;;;;5094249;28;20184;-67
2023/03/11 00:45:43;;;;;;;7.13;2.70;;;;;;;;;;5093752;28;20184;-68
2023/03/11 00:48:09;;;;;;;7.33;2.60;;;;;;;;;;5075702;28;20403;-67
2023/03/11 00:50:36;;;;;;;8.93;2.53;;;;;;;;;;5075728;28;20270;-66
2023/03/11 00:53:02;;;;;;;8.83;2.80;;;;;;;;;;5093504;28;20205;-66
2023/03/11 00:55:30;;;;;;;5.47;2.47;;;;;;;;;;5093748;28;20493;-66
2023/03/11 00:58:01;;;;;;;7.93;2.50;;;;;;;;;;5077495;28;20654;-67
2023/03/11 01:00:27;;;;;;;9.03;2.73;;;;;;;;;;5079133;28;20437;-67
2023/03/11 01:02:54;;;;;;;4.90;2.17;;;;;;;;;;5097947;28;20780;-66
2023/03/11 01:05:21;;;;;;;7.20;2.27;;;;;;;;;;5097465;28;20904;-66
2023/03/11 01:07:47;;;;;;;8.00;2.83;;;;;;;;;;5096476;28;20469;-67
2023/03/11 01:10:13;;;;;;;8.70;2.85;;;;;;;;;;5096126;28;20382;-67
2023/03/11 01:12:39;;;;;;;10.73;3.20;;;;;;;;;;5078044;28;20394;-67
2023/03/11 01:15:06;;;;;;;8.13;2.50;;;;;;;;;;5097232;28;20169;-66
2023/03/11 01:17:33;;;;;;;11.07;3.00;;;;;;;;;;5097581;28;20291;-67
2023/03/11 01:19:59;;;;;;;12.67;3.30;;;;;;;;;;5079165;28;20188;-67
2023/03/11 01:22:25;;;;;;;8.90;3.17;;;;;;;;;;5097136;28;20435;-67
2023/03/11 01:24:51;;;;;;;8.20;2.60;;;;;;;;;;5078885;28;20226;-67
2023/03/11 01:27:17;;;;;;;7.70;2.50;;;;;;;;;;5096654;28;20188;-67
2023/03/11 01:29:43;;;;;;;18.53;3.50;;;;;;;;;;5079563;28;20177;-67
2023/03/11 01:32:09;;;;;;;13.43;3.23;;;;;;;;;;5078524;28;20200;-67
2023/03/11 01:34:35;;;;;;;18.00;3.33;;;;;;;;;;5096992;28;20203;-67
2023/03/11 01:37:02;;;;;;;15.10;3.37;;;;;;;;;;5078545;28;20980;-67
2023/03/11 01:39:28;;;;;;;13.33;4.17;;;;;;;;;;5078628;28;20185;-67
2023/03/11 01:41:55;;;;;;;14.60;3.83;;;;;;;;;;5079224;28;20458;-67
2023/03/11 01:44:21;;;;;;;13.23;4.33;;;;;;;;;;5078967;28;20184;-67
2023/03/11 01:46:53;;;;;;;8.33;3.77;;;;;;;;;;5096835;28;20422;-67
2023/03/11 01:49:22;;;;;;;16.73;4.67;;;;;;;;;;5097277;28;20403;-67
2023/03/11 01:51:50;;;;;;;10.10;4.77;;;;;;;;;;5079234;28;20459;-67
2023/03/11 01:54:23;;;;;;;14.53;4.57;;;;;;;;;;5098065;28;20422;-67
2023/03/11 01:56:50;;;;;;;7.57;3.83;;;;;;;;;;5098416;28;20404;-67
2023/03/11 01:59:19;;;;;;;13.70;4.20;;;;;;;;;;5098906;28;20973;-67
2023/03/11 02:01:52;;;;;;;9.97;3.83;;;;;;;;;;5109601;28;20438;-67
2023/03/11 02:04:18;;;;;;;13.07;4.70;;;;;;;;;;5113778;28;20455;-68
2023/03/11 02:06:44;;;;;;;11.17;5.70;;;;;;;;;;5113804;28;20494;-68
2023/03/11 02:09:10;;;;;;;9.77;4.10;;;;;;;;;;5111925;28;20403;-68
2023/03/11 02:11:36;;;;;;;11.30;3.77;;;;;;;;;;5098274;28;20520;-67
2023/03/11 02:14:04;;;;;;;11.17;3.73;;;;;;;;;;5077940;28;20261;-67
2023/03/11 02:16:30;;;;;;;11.67;3.83;;;;;;;;;;5078233;28;20182;-67
2023/03/11 02:18:57;;;;;;;9.97;3.60;;;;;;;;;;5095660;28;20469;-67
2023/03/11 02:21:25;;;;;;;11.73;3.53;;;;;;;;;;5077448;28;20204;-66
2023/03/11 02:24:03;;;;;;;10.73;3.20;;;;;;;;;;5077437;28;20418;-67
2023/03/11 02:26:42;;;;;;;12.93;2.73;;;;;;;;;;5077413;28;20415;-67
2023/03/11 02:29:10;;;;;;;11.00;3.67;;;;;;;;;;5095400;28;20399;-67
2023/03/11 02:31:37;;;;;;;11.87;3.50;;;;;;;;;;5095347;28;20546;-67
2023/03/11 02:34:05;;;;;;;18.33;3.10;;;;;;;;;;5095759;28;20468;-67
2023/03/11 02:36:38;;;;;;;11.13;2.90;;;;;;;;;;5095120;28;20907;-68
2023/03/11 02:39:04;;;;;;;9.20;3.20;;;;;;;;;;5077234;28;20411;-67
2023/03/11 02:41:31;;;;;;;6.27;2.30;;;;;;;;;;5076853;28;20458;-67
2023/03/11 02:43:58;;;;;;;14.83;3.00;;;;;;;;;;5076890;28;20438;-67
2023/03/11 02:46:24;;;;;;;8.53;3.13;;;;;;;;;;5095057;28;20411;-66
2023/03/11 02:48:50;;;;;;;13.60;2.73;;;;;;;;;;5095042;28;20414;-67
2023/03/11 02:51:16;;;;;;;5.90;2.47;;;;;;;;;;5076697;28;20937;-69
2023/03/11 02:53:47;;;;;;;10.93;2.20;;;;;;;;;;5095197;28;20413;-67
2023/03/11 02:56:13;;;;;;;9.83;2.40;;;;;;;;;;5076815;28;20643;-67
2023/03/11 02:58:39;;;;;;;7.10;2.47;;;;;;;;;;5076747;28;20478;-67
2023/03/11 03:01:05;;;;;;;7.83;2.33;;;;;;;;;;5094766;28;20192;-67
2023/03/11 03:03:31;;;;;;;6.23;2.53;;;;;;;;;;5094665;28;20205;-67
2023/03/11 03:05:57;;;;;;;7.73;2.70;;;;;;;;;;5094738;28;20446;-67
2023/03/11 03:08:23;;;;;;;6.73;2.60;;;;;;;;;;5095285;28;20514;-67
2023/03/11 03:10:49;;;;;;;11.17;2.50;;;;;;;;;;5076489;28;20205;-67
2023/03/11 03:13:15;;;;;;;11.70;2.80;;;;;;;;;;5094900;28;20209;-67
2023/03/11 03:15:41;;;;;;;9.63;2.67;;;;;;;;;;5095091;28;20180;-67
2023/03/11 03:18:06;;;;;;;10.33;3.47;;;;;;;;;;5095234;28;20399;-67
2023/03/11 03:20:32;;;;;;;15.10;2.50;;;;;;;;;;5095146;28;20200;-68
2023/03/11 03:22:58;;;;;;;9.40;2.70;;;;;;;;;;5078412;28;20220;-67
2023/03/11 03:25:24;;;;;;;9.07;2.53;;;;;;;;;;5078604;28;20235;-67
2023/03/11 03:27:50;;;;;;;4.80;2.40;;;;;;;;;;5079705;28;20188;-67
2023/03/11 03:30:16;;;;;;;11.03;2.87;;;;;;;;;;5097257;28;20426;-67
2023/03/11 03:32:42;;;;;;;8.00;2.50;;;;;;;;;;5097756;28;20204;-67
2023/03/11 03:35:08;;;;;;;8.23;2.90;;;;;;;;;;5097775;28;20173;-67
2023/03/11 03:37:36;;;;;;;10.13;2.27;;;;;;;;;;5078769;28;20268;-67
2023/03/11 03:40:06;;;;;;;8.97;2.47;;;;;;;;;;5098162;28;20493;-68
2023/03/11 03:42:32;;;;;;;8.43;3.00;;;;;;;;;;5096913;28;20891;-68
2023/03/11 03:44:58;;;;;;;7.87;2.93;;;;;;;;;;5079525;28;20423;-67
2023/03/11 03:47:24;;;;;;;10.90;2.60;;;;;;;;;;5080795;28;20200;-67
2023/03/11 03:49:50;;;;;;;7.30;2.27;;;;;;;;;;5081349;28;20180;-69
2023/03/11 03:52:16;;;;;;;10.03;2.53;;;;;;;;;;5098659;28;20455;-67
2023/03/11 03:54:42;;;;;;;8.77;3.03;;;;;;;;;;5099473;28;20177;-68
2023/03/11 03:57:08;;;;;;;12.53;3.00;;;;;;;;;;5099509;28;20404;-67
2023/03/11 03:59:34;;;;;;;10.33;2.57;;;;;;;;;;5080325;28;20494;-68
2023/03/11 04:02:00;;;;;;;10.93;2.93;;;;;;;;;;5098377;28;20226;-68
2023/03/11 04:04:26;;;;;;;5.70;2.93;;;;;;;;;;5098547;28;20406;-67
2023/03/11 04:06:52;;;;;;;13.63;2.40;;;;;;;;;;5099447;28;20177;-68
2023/03/11 04:09:18;;;;;;;6.77;2.33;;;;;;;;;;5102138;28;20414;-68
2023/03/11 04:11:44;;;;;;;7.97;2.40;;;;;;;;;;5100975;28;20454;-68
2023/03/11 04:14:10;;;;;;;10.13;2.60;;;;;;;;;;5100447;28;20651;-68
2023/03/11 04:16:36;;;;;;;5.87;2.23;;;;;;;;;;5103900;28;20177;-68
2023/03/11 04:19:04;;;;;;;10.40;2.70;;;;;;;;;;5086889;28;20176;-68
2023/03/11 04:21:30;;;;;;;9.97;2.80;;;;;;;;;;5104244;28;20427;-69
2023/03/11 04:23:56;;;;;;;9.00;2.33;;;;;;;;;;5103423;28;20456;-67
2023/03/11 04:26:22;;;;;;;7.90;2.23;;;;;;;;;;5098697;28;20215;-67
2023/03/11 04:28:48;;;;;;;10.37;2.93;;;;;;;;;;5105939;28;20176;-68
2023/03/11 04:31:14;;;;;;;4.87;2.20;;;;;;;;;;5096732;28;20189;-67
2023/03/11 04:33:40;;;;;;;6.80;2.73;;;;;;;;;;5097738;28;20544;-67
2023/03/11 04:36:07;;;;;;;12.20;2.57;;;;;;;;;;5098258;28;20438;-67
2023/03/11 04:38:33;;;;;;;8.70;3.13;;;;;;;;;;5081217;28;20184;-68
2023/03/11 04:41:03;;;;;;;8.27;2.50;;;;;;;;;;5081382;28;20545;-67
2023/03/11 04:43:29;;;;;;;4.20;2.37;;;;;;;;;;5099240;28;20263;-67
2023/03/11 04:45:54;;;;;;;9.67;2.83;;;;;;;;;;5099826;28;20497;-67
2023/03/11 04:48:20;;;;;;;6.27;2.40;;;;;;;;;;5081678;28;20768;-67
2023/03/11 04:50:46;;;;;;;9.47;3.10;;;;;;;;;;5098983;28;20670;-67
2023/03/11 04:53:12;;;;;;;9.07;2.67;;;;;;;;;;5098757;28;20614;-67
2023/03/11 04:55:38;;;;;;;9.27;2.70;;;;;;;;;;5098466;28;20169;-67
2023/03/11 04:58:05;;;;;;;8.17;2.60;;;;;;;;;;5098527;28;20173;-67
2023/03/11 05:00:30;;;;;;;4.43;2.67;;;;;;;;;;5097950;28;20423;-67
2023/03/11 05:02:57;;;;;;;9.63;3.03;;;;;;;;;;5098508;28;20414;-67
2023/03/11 05:05:22;;;;;;;9.53;3.40;;;;;;;;;;5098700;28;20181;-67
2023/03/11 05:07:49;;;;;;;6.23;2.80;;;;;;;;;;5099069;28;20465;-67
2023/03/11 05:10:21;;;;;;;10.30;3.00;;;;;;;;;;5098547;28;20177;-66
2023/03/11 05:12:47;;;;;;;8.03;3.03;;;;;;;;;;5080390;28;20447;-67
2023/03/11 05:15:13;;;;;;;9.20;2.80;;;;;;;;;;5098767;28;20414;-67
2023/03/11 05:17:38;;;;;;;8.13;3.20;;;;;;;;;;5098570;28;20629;-67
2023/03/11 05:20:06;;;;;;;7.97;2.90;;;;;;;;;;5097969;28;20540;-69
2023/03/11 05:22:32;;;;;;;10.47;3.93;;;;;;;;;;5079157;28;20665;-67
2023/03/11 05:24:58;;;;;;;8.33;2.40;;;;;;;;;;5079559;28;20429;-67
2023/03/11 05:27:24;;;;;;;4.50;2.30;;;;;;;;;;5098237;28;20907;-67
2023/03/11 05:29:50;;;;;;;8.43;3.40;;;;;;;;;;5098333;28;20319;-67
2023/03/11 05:32:18;;;;;;;5.37;2.50;;;;;;;;;;5097960;28;20974;-67
2023/03/11 05:34:44;;;;;;;8.73;2.87;;;;;;;;;;5079244;28;20414;-67
2023/03/11 05:37:10;;;;;;;4.70;2.87;;;;;;;;;;5079401;28;20970;-67
2023/03/11 05:39:36;;;;;;;6.17;2.97;;;;;;;;;;5079222;28;20422;-67
2023/03/11 05:42:02;;;;;;;7.20;2.60;;;;;;;;;;5097102;28;20875;-69
2023/03/11 05:44:28;;;;;;;17.40;3.13;;;;;;;;;;5096317;28;20881;-67
2023/03/11 05:46:54;;;;;;;7.73;2.83;;;;;;;;;;5078702;28;20472;-67
2023/03/11 05:49:20;;;;;;;8.90;2.90;;;;;;;;;;5097124;28;20182;-67
2023/03/11 05:51:47;;;;;;;9.43;3.60;;;;;;;;;;5096471;28;20209;-68
2023/03/11 05:54:13;;;;;;;9.77;3.27;;;;;;;;;;5078860;28;20259;-67
2023/03/11 05:56:40;;;;;;;13.53;3.97;;;;;;;;;;5097118;28;20412;-67
2023/03/11 05:59:06;;;;;;;6.13;3.07;;;;;;;;;;5097546;28;20419;-66
2023/03/11 06:01:32;;;;;;;10.47;3.03;;;;;;;;;;5096693;28;20435;-69
2023/03/11 06:03:59;;;;;;;12.07;3.57;;;;;;;;;;5097220;28;20486;-67
2023/03/11 06:06:25;;;;;;;10.07;3.50;;;;;;;;;;5111141;28;20414;-68
2023/03/11 06:08:51;;;;;;;6.63;3.10;;;;;;;;;;5111830;28;20412;-68
2023/03/11 06:11:17;;;;;;;10.13;3.43;;;;;;;;;;5091366;28;20848;-67
2023/03/11 06:13:43;;;;;;;7.77;2.87;;;;;;;;;;5079344;28;20188;-67
2023/03/11 06:16:09;;;;;;;11.77;3.03;;;;;;;;;;5096865;28;20915;-67
2023/03/11 06:18:35;;;;;;;8.60;3.13;;;;;;;;;;5096711;28;20490;-67
2023/03/11 06:21:02;;;;;;;9.40;2.50;;;;;;;;;;5096559;28;20908;-67
2023/03/11 06:23:29;;;;;;;9.53;3.40;;;;;;;;;;5078366;28;20196;-67
2023/03/11 06:25:58;;;;;;;14.10;4.03;;;;;;;;;;5096324;28;20453;-67
2023/03/11 06:28:24;;;;;;;7.83;3.43;;;;;;;;;;5096719;28;20412;-67
2023/03/11 06:30:50;;;;;;;12.03;3.60;;;;;;;;;;5096163;28;20488;-67
2023/03/11 06:33:16;;;;;;;9.93;3.50;;;;;;;;;;5096249;28;20940;-67
2023/03/11 06:35:42;;;;;;;10.47;3.30;;;;;;;;;;5096372;28;20219;-67
2023/03/11 06:38:08;;;;;;;12.00;3.63;;;;;;;;;;5078053;28;20202;-67
2023/03/11 06:40:36;;;;;;;9.83;3.33;;;;;;;;;;5096238;28;20679;-68
2023/03/11 06:43:02;;;;;;;5.93;2.93;;;;;;;;;;5078549;28;20422;-67
2023/03/11 06:45:28;;;;;;;6.23;3.17;;;;;;;;;;5096883;28;20773;-67
2023/03/11 06:47:54;;;;;;;15.83;3.63;;;;;;;;;;5077611;28;20187;-66
2023/03/11 06:50:22;;;;;;;18.90;10.23;;;;;;;;;;5096371;28;20184;-67
2023/03/11 06:52:48;;;;;;;153.10;66.67;;;;;;;;;;5077791;28;20256;-67
2023/03/11 06:55:14;;;;;;;219.60;92.40;;;;;;;;;;5077565;28;20819;-67
2023/03/11 06:57:40;;;;;;;82.77;35.37;;;;;;;;;;5116874;22;20180;-66
2023/03/11 07:00:09;;;;;;;72.53;31.20;;;;;;;;;;5094690;28;20437;-68
2023/03/11 07:02:35;;;;;;;43.47;21.23;;;;;;;;;;5076870;28;20179;-67
2023/03/11 07:05:01;;;;;;;36.17;18.43;;;;;;;;;;5095045;28;20421;-67
2023/03/11 07:07:27;;;;;;;12.83;6.63;;;;;;;;;;5077002;28;20217;-69
2023/03/11 07:09:54;;;;;;;13.50;7.77;;;;;;;;;;5076830;28;20181;-68
2023/03/11 07:12:21;;;;;;;34.87;18.53;;;;;;;;;;5094813;28;20205;-68
2023/03/11 07:14:47;;;;;;;29.60;17.90;;;;;;;;;;5095022;28;20403;-67
2023/03/11 07:17:13;;;;;;;21.23;8.53;;;;;;;;;;5095039;28;20427;-68
2023/03/11 07:19:39;;;;;;;7.97;4.70;;;;;;;;;;5094843;28;20911;-68
2023/03/11 07:22:05;;;;;;;10.37;3.93;;;;;;;;;;5095567;28;20575;-69
2023/03/11 07:24:31;;;;;;;8.17;3.50;;;;;;;;;;5077988;28;20518;-67
2023/03/11 07:26:57;;;;;;;14.40;4.80;;;;;;;;;;5077376;28;20180;-68
2023/03/11 07:29:23;;;;;;;11.40;3.47;;;;;;;;;;5095023;28;20205;-68
2023/03/11 07:31:49;;;;;;;11.53;3.50;;;;;;;;;;5077357;28;20201;-67
2023/03/11 07:34:15;;;;;;;8.83;3.20;;;;;;;;;;5095337;28;20251;-69
2023/03/11 07:36:42;;;;;;;7.77;3.00;;;;;;;;;;5076984;28;20704;-68
2023/03/11 07:39:12;;;;;;;9.97;2.67;;;;;;;;;;5095182;28;20441;-66
2023/03/11 07:41:38;;;;;;;7.53;2.87;;;;;;;;;;5095497;28;20562;-67
2023/03/11 07:44:04;;;;;;;10.20;2.73;;;;;;;;;;5094793;28;20177;-67
2023/03/11 07:46:30;;;;;;;5.57;2.73;;;;;;;;;;5095349;28;20173;-67
2023/03/11 07:48:56;;;;;;;9.13;2.73;;;;;;;;;;5095240;28;20249;-68
2023/03/11 07:51:25;;;;;;;6.27;2.90;;;;;;;;;;5076986;28;20177;-65
2023/03/11 07:53:52;;;;;;;4.90;2.77;;;;;;;;;;5094560;28;20268;-68
2023/03/11 07:56:18;;;;;;;5.80;2.57;;;;;;;;;;5095629;28;20185;-68
2023/03/11 07:58:44;;;;;;;4.70;2.63;;;;;;;;;;5076853;28;20221;-68
2023/03/11 08:01:11;;;;;;;9.20;2.67;;;;;;;;;;5095008;28;20208;-67
2023/03/11 08:03:38;;;;;;;7.67;2.83;;;;;;;;;;5094776;28;20195;-67
2023/03/11 08:06:11;;;;;;;4.40;2.87;;;;;;;;;;5094523;28;20188;-68
2023/03/11 08:08:37;;;;;;;9.60;2.77;;;;;;;;;;5094687;28;20208;-66
2023/03/11 08:11:03;;;;;;;5.50;2.50;;;;;;;;;;5094763;28;20169;-67
2023/03/11 08:13:29;;;;;;;7.40;2.70;;;;;;;;;;5094962;28;20666;-67
2023/03/11 08:15:55;;;;;;;5.33;2.40;;;;;;;;;;5094514;28;20256;-68
2023/03/11 08:18:21;;;;;;;8.53;3.07;;;;;;;;;;5094933;28;20251;-68
2023/03/11 08:20:47;;;;;;;7.10;2.80;;;;;;;;;;5094495;28;20298;-66
2023/03/11 08:23:13;;;;;;;10.03;2.67;;;;;;;;;;5076492;28;20173;-68
2023/03/11 08:25:39;;;;;;;4.83;3.00;;;;;;;;;;5076817;28;20646;-68
2023/03/11 08:28:06;;;;;;;12.63;6.30;;;;;;;;;;5095156;28;20225;-65
2023/03/11 08:30:32;;;;;;;8.57;2.90;;;;;;;;;;5094932;28;20550;-65
2023/03/11 08:32:58;;;;;;;9.07;2.60;;;;;;;;;;5094602;28;20208;-67
2023/03/11 08:35:25;;;;;;;6.30;2.47;;;;;;;;;;5076166;28;20170;-66
2023/03/11 08:37:51;;;;;;;5.97;2.63;;;;;;;;;;5094387;28;20185;-67
2023/03/11 08:40:17;;;;;;;7.37;2.93;;;;;;;;;;5094624;28;20173;-67
2023/03/11 08:42:43;;;;;;;8.60;3.00;;;;;;;;;;5094205;28;20181;-67
2023/03/11 08:45:10;;;;;;;5.67;2.00;;;;;;;;;;5076190;28;20181;-66
2023/03/11 08:47:37;;;;;;;9.13;1.90;;;;;;;;;;5094628;28;20285;-68
2023/03/11 08:50:04;;;;;;;11.03;2.10;;;;;;;;;;5076554;28;20272;-67
2023/03/11 08:52:29;;;;;;;6.20;2.50;;;;;;;;;;5094068;28;20211;-67
2023/03/11 08:54:57;;;;;;;5.83;2.40;;;;;;;;;;5094129;28;20173;-68
2023/03/11 08:57:23;;;;;;;4.87;2.87;;;;;;;;;;5094324;28;20220;-68
2023/03/11 08:59:49;;;;;;;6.13;2.43;;;;;;;;;;5093798;28;20185;-68
2023/03/11 09:02:15;;;;;;;5.77;2.50;;;;;;;;;;5094380;28;20230;-68
2023/03/11 09:04:40;;;;;;;4.63;2.10;;;;;;;;;;5094370;28;20719;-67
2023/03/11 09:07:06;;;;;;;7.37;2.23;;;;;;;;;;5076226;28;20285;-66
2023/03/11 09:09:32;;;;;;;8.43;1.90;;;;;;;;;;5094175;28;20207;-68
2023/03/11 09:11:58;;;;;;;9.67;1.93;;;;;;;;;;5094171;28;20201;-68
2023/03/11 09:14:24;;;;;;;8.87;2.17;;;;;;;;;;5094173;28;20177;-66
2023/03/11 09:16:50;;;;;;;8.20;2.20;;;;;;;;;;5093865;28;20213;-66
2023/03/11 09:19:16;;;;;;;3.30;1.60;;;;;;;;;;5096443;28;20212;-67
2023/03/11 09:21:42;;;;;;;7.50;3.77;;;;;;;;;;5097843;28;20695;-66
2023/03/11 09:24:08;;;;;;;4.10;1.80;;;;;;;;;;5097789;28;20208;-69
2023/03/11 09:26:35;;;;;;;3.90;2.20;;;;;;;;;;5079438;28;20635;-67
2023/03/11 09:29:01;;;;;;;4.10;1.83;;;;;;;;;;5079407;28;20197;-66
2023/03/11 09:31:27;;;;;;;4.00;1.87;;;;;;;;;;5097570;28;20173;-67
2023/03/11 09:33:55;;;;;;;5.00;2.30;;;;;;;;;;5097583;28;20207;-67
2023/03/11 09:36:21;;;;;;;6.03;2.20;;;;;;;;;;5079273;28;20173;-67
2023/03/11 09:38:47;;;;;;;3.23;1.67;;;;;;;;;;5097229;28;20732;-68
2023/03/11 09:41:16;;;;;;;6.47;1.80;;;;;;;;;;5097085;28;20693;-68
2023/03/11 09:43:43;;;;;;;6.20;2.03;;;;;;;;;;5097040;28;20618;-66
2023/03/11 09:46:29;;;;;;;4.97;1.70;;;;;;;;;;5097339;28;20177;-68
2023/03/11 09:49:16;;;;;;;4.63;1.90;;;;;;;;;;5078822;28;20693;-68
2023/03/11 09:51:47;;;;;;;3.57;1.33;;;;;;;;;;5079203;28;20177;-66
2023/03/11 09:54:13;;;;;;;4.33;1.30;;;;;;;;;;5079112;28;20165;-67
2023/03/11 09:56:42;;;;;;;4.27;1.77;;;;;;;;;;5078635;28;20226;-67
2023/03/11 09:59:12;;;;;;;10.37;2.40;;;;;;;;;;5078552;28;20220;-67
2023/03/11 10:01:46;;;;;;;3.67;1.20;;;;;;;;;;5096643;28;20166;-67
2023/03/11 10:04:19;;;;;;;6.80;1.60;;;;;;;;;;5097067;28;20188;-67
2023/03/11 10:06:46;;;;;;;6.33;1.50;;;;;;;;;;5096708;28;20196;-67
2023/03/11 10:09:11;;;;;;;3.67;1.90;;;;;;;;;;5097103;28;20666;-67
2023/03/11 10:11:47;;;;;;;4.57;1.90;;;;;;;;;;5096278;28;20174;-68
2023/03/11 10:14:19;;;;;;;8.93;2.00;;;;;;;;;;5097068;28;20166;-67
2023/03/11 10:17:00;;;;;;;2.23;1.60;;;;;;;;;;5078840;28;20523;-70
2023/03/11 10:19:29;;;;;;;7.23;2.00;;;;;;;;;;5097172;28;20197;-68
2023/03/11 10:22:14;;;;;;;2.37;1.80;;;;;;;;;;5079323;28;20203;-67
2023/03/11 10:24:48;;;;;;;3.30;1.60;;;;;;;;;;5080011;28;20271;-67
2023/03/11 10:27:16;;;;;;;5.70;1.47;;;;;;;;;;5081041;28;20176;-68
2023/03/11 10:29:53;;;;;;;4.07;1.40;;;;;;;;;;5100588;28;20201;-67
2023/03/11 10:32:25;;;;;;;4.30;1.30;;;;;;;;;;5103702;28;20204;-67
2023/03/11 10:35:16;;;;;;;6.70;1.67;;;;;;;;;;5100900;28;20173;-67
2023/03/11 10:37:45;;;;;;;2.53;1.70;;;;;;;;;;5096748;28;20157;-67
2023/03/11 10:40:17;;;;;;;4.23;1.70;;;;;;;;;;5096409;28;20196;-68
2023/03/11 10:42:45;;;;;;;5.13;1.60;;;;;;;;;;5096205;28;20196;-66
2023/03/11 10:45:15;;;;;;;4.63;1.60;;;;;;;;;;5095771;28;20246;-68
2023/03/11 10:47:41;;;;;;;4.13;1.37;;;;;;;;;;5095890;28;20177;-66
2023/03/11 10:50:09;;;;;;;6.80;1.90;;;;;;;;;;5077946;28;20651;-67
2023/03/11 10:52:43;;;;;;;6.57;1.80;;;;;;;;;;5096141;28;20552;-67
2023/03/11 10:55:18;;;;;;;3.60;1.47;;;;;;;;;;5096973;28;20157;-66
2023/03/11 10:57:46;;;;;;;5.30;1.80;;;;;;;;;;5096256;28;20193;-66
2023/03/11 11:00:27;;;;;;;5.70;1.77;;;;;;;;;;5096013;28;20162;-67
2023/03/11 11:02:58;;;;;;;3.67;1.70;;;;;;;;;;5096204;28;20161;-67
2023/03/11 11:05:24;;;;;;;5.17;1.70;;;;;;;;;;5095835;28;20169;-67
2023/03/11 11:07:52;;;;;;;7.73;1.60;;;;;;;;;;5095746;28;20197;-66
2023/03/11 11:10:18;;;;;;;6.20;2.10;;;;;;;;;;5077207;28;20181;-68
2023/03/11 11:12:58;;;;;;;3.53;1.50;;;;;;;;;;5077255;28;20208;-68
2023/03/11 11:15:37;;;;;;;4.23;1.73;;;;;;;;;;5095248;28;20205;-66
2023/03/11 11:18:05;;;;;;;3.13;1.70;;;;;;;;;;5095394;28;20204;-67
2023/03/11 11:20:31;;;;;;;4.13;1.70;;;;;;;;;;5095613;28;20173;-66
2023/03/11 11:22:59;;;;;;;5.70;2.03;;;;;;;;;;5096373;28;20177;-67
2023/03/11 11:25:28;;;;;;;6.53;2.60;;;;;;;;;;5095204;28;20264;-67
2023/03/11 11:27:55;;;;;;;4.03;1.90;;;;;;;;;;5095349;28;20205;-68
2023/03/11 11:30:22;;;;;;;4.13;1.77;;;;;;;;;;5077152;28;20184;-66
2023/03/11 11:32:48;;;;;;;6.53;2.37;;;;;;;;;;5077177;28;20208;-67
2023/03/11 11:35:18;;;;;;;4.00;2.00;;;;;;;;;;5095355;28;20226;-68
2023/03/11 11:37:49;;;;;;;3.80;1.90;;;;;;;;;;5095313;28;20572;-68
2023/03/11 11:40:15;;;;;;;7.93;2.30;;;;;;;;;;5094647;28;20176;-67
2023/03/11 11:43:04;;;;;;;5.67;2.20;;;;;;;;;;5076572;28;20242;-69
2023/03/11 11:45:45;;;;;;;7.43;2.30;;;;;;;;;;5083804;28;20200;-68
2023/03/11 11:48:20;;;;;;;5.30;2.10;;;;;;;;;;5076307;28;20345;-66
2023/03/11 11:50:50;;;;;;;4.97;1.90;;;;;;;;;;5095027;28;20184;-67
2023/03/11 11:53:38;;;;;;;3.73;2.07;;;;;;;;;;5095775;28;20205;-66
2023/03/11 11:56:05;;;;;;;4.57;2.40;;;;;;;;;;5095123;28;20165;-67
2023/03/11 11:58:31;;;;;;;5.83;2.30;;;;;;;;;;5076053;28;20212;-67
2023/03/11 12:01:10;;;;;;;7.97;2.37;;;;;;;;;;5094446;28;20313;-67
2023/03/11 12:03:42;;;;;;;3.07;1.70;;;;;;;;;;5094383;28;20173;-67
2023/03/11 12:06:16;;;;;;;6.43;2.00;;;;;;;;;;5094267;28;20181;-67
2023/03/11 12:08:49;;;;;;;5.33;1.70;;;;;;;;;;5078868;28;20201;-65
2023/03/11 12:11:23;;;;;;;6.20;2.47;;;;;;;;;;5094979;28;20177;-69
2023/03/11 12:14:00;;;;;;;5.17;2.00;;;;;;;;;;5076455;28;20200;-69
2023/03/11 12:16:34;;;;;;;4.07;1.90;;;;;;;;;;5095182;28;20161;-68
2023/03/11 12:19:10;;;;;;;6.67;2.00;;;;;;;;;;5094685;28;20235;-69
2023/03/11 12:21:51;;;;;;;7.17;2.20;;;;;;;;;;5076576;28;20564;-68
2023/03/11 12:24:36;;;;;;;7.50;1.80;;;;;;;;;;5076865;28;20203;-68
2023/03/11 12:27:04;;;;;;;9.30;1.70;;;;;;;;;;5094976;28;20641;-69
2023/03/11 12:29:33;;;;;;;7.57;1.77;;;;;;;;;;5076266;28;20197;-69
2023/03/11 12:31:59;;;;;;;5.00;1.80;;;;;;;;;;5094088;28;20209;-67
2023/03/11 12:34:27;;;;;;;3.37;1.97;;;;;;;;;;5094171;28;20173;-68
2023/03/11 12:36:54;;;;;;;7.73;2.20;;;;;;;;;;5094760;28;20173;-67
2023/03/11 12:39:23;;;;;;;6.90;2.10;;;;;;;;;;5076254;28;20626;-69
2023/03/11 12:41:49;;;;;;;3.53;1.80;;;;;;;;;;5094163;28;20170;-70
2023/03/11 12:44:23;;;;;;;11.33;7.10;;;;;;;;;;5094858;28;20173;-69
2023/03/11 12:46:57;;;;;;;5.60;3.03;;;;;;;;;;5094828;28;20180;-68
2023/03/11 12:49:31;;;;;;;3.50;1.67;;;;;;;;;;5095149;28;20577;-70
2023/03/11 12:52:14;;;;;;;5.30;2.07;;;;;;;;;;5094723;28;20205;-70
2023/03/11 12:54:41;;;;;;;4.23;1.90;;;;;;;;;;5098103;28;20208;-68
2023/03/11 12:57:29;;;;;;;3.30;1.63;;;;;;;;;;5080719;28;20184;-69
2023/03/11 13:00:08;;;;;;;2.83;1.63;;;;;;;;;;5058435;28;20572;-68
2023/03/11 13:02:40;;;;;;;6.43;2.03;;;;;;;;;;5098359;28;20173;-67
2023/03/11 13:05:24;;;;;;;4.37;1.80;;;;;;;;;;5098668;28;20177;-69
2023/03/11 13:07:54;;;;;;;4.67;2.20;;;;;;;;;;5098379;28;20207;-70
2023/03/11 13:10:33;;;;;;;3.90;1.90;;;;;;;;;;5098651;28;20233;-69
2023/03/11 13:12:59;;;;;;;3.17;1.67;;;;;;;;;;5098696;28;20185;-68
2023/03/11 13:15:28;;;;;;;5.00;1.80;;;;;;;;;;5098236;28;20200;-68
2023/03/11 13:17:58;;;;;;;4.03;1.60;;;;;;;;;;5079812;28;20223;-68
2023/03/11 13:20:42;;;;;;;3.57;1.50;;;;;;;;;;5079483;28;20263;-68
2023/03/11 13:23:11;;;;;;;3.97;1.90;;;;;;;;;;5098101;28;20192;-68
2023/03/11 13:25:38;;;;;;;4.37;1.80;;;;;;;;;;5079808;28;20650;-68
2023/03/11 13:28:22;;;;;;;5.50;1.70;;;;;;;;;;5097505;28;20686;-68
2023/03/11 13:31:06;;;;;;;4.47;1.77;;;;;;;;;;5097972;28;20654;-68
2023/03/11 13:33:37;;;;;;;2.23;1.70;;;;;;;;;;5098336;28;20201;-68
2023/03/11 13:36:24;;;;;;;3.90;1.80;;;;;;;;;;5098124;28;20169;-67
2023/03/11 13:38:50;;;;;;;2.73;1.50;;;;;;;;;;5078476;28;20349;-68
2023/03/11 13:41:22;;;;;;;4.50;1.77;;;;;;;;;;5078615;28;20672;-68
2023/03/11 13:43:49;;;;;;;2.50;1.60;;;;;;;;;;5097019;28;20199;-68
2023/03/11 13:46:24;;;;;;;4.33;2.00;;;;;;;;;;5079107;28;20185;-69
2023/03/11 13:48:53;;;;;;;3.70;1.93;;;;;;;;;;5078805;28;20228;-71
2023/03/11 13:51:25;;;;;;;7.33;2.33;;;;;;;;;;5097241;28;20178;-68
2023/03/11 13:53:56;;;;;;;5.07;1.93;;;;;;;;;;5078691;28;20208;-69
2023/03/11 13:56:32;;;;;;;5.13;1.57;;;;;;;;;;5096984;28;20174;-68
2023/03/11 13:59:17;;;;;;;3.07;2.00;;;;;;;;;;5078336;28;20240;-70
2023/03/11 14:02:09;;;;;;;9.17;1.87;;;;;;;;;;5096743;28;20211;-68
2023/03/11 14:04:36;;;;;;;1.77;1.40;;;;;;;;;;5074392;28;20188;-68
2023/03/11 14:07:19;;;;;;;6.87;1.63;;;;;;;;;;5097092;28;20169;-68
2023/03/11 14:09:45;;;;;;;3.27;1.50;;;;;;;;;;5096922;28;20230;-69
2023/03/11 14:12:12;;;;;;;4.10;1.50;;;;;;;;;;5096542;28;20258;-69
2023/03/11 14:14:43;;;;;;;3.60;1.70;;;;;;;;;;5096782;28;20201;-65
2023/03/11 14:17:13;;;;;;;4.67;1.50;;;;;;;;;;5077815;28;20169;-70
2023/03/11 14:19:39;;;;;;;2.47;1.60;;;;;;;;;;5077187;28;20201;-70
2023/03/11 14:22:07;;;;;;;5.90;1.67;;;;;;;;;;5077198;28;20254;-70
2023/03/11 14:24:33;;;;;;;4.03;1.70;;;;;;;;;;5096471;28;20192;-68
2023/03/11 14:27:00;;;;;;;3.33;1.50;;;;;;;;;;5096184;28;20180;-69
2023/03/11 14:29:34;;;;;;;3.10;1.47;;;;;;;;;;5095843;28;20291;-69
2023/03/11 14:32:20;;;;;;;4.10;1.47;;;;;;;;;;5095217;28;20216;-68
2023/03/11 14:34:46;;;;;;;2.87;1.33;;;;;;;;;;5095318;28;20189;-70
2023/03/11 14:37:36;;;;;;;3.27;1.50;;;;;;;;;;5076725;28;20186;-68
2023/03/11 14:40:02;;;;;;;5.30;1.70;;;;;;;;;;5084830;28;20193;-69
2023/03/11 14:42:31;;;;;;;4.23;1.53;;;;;;;;;;5113506;22;20230;-69
2023/03/11 14:45:04;;;;;;;6.87;2.00;;;;;;;;;;5056488;28;20559;-66
2023/03/11 14:47:37;;;;;;;3.53;1.70;;;;;;;;;;5074340;28;20261;-68
2023/03/11 14:50:05;;;;;;;2.80;1.60;;;;;;;;;;5056859;28;20170;-67